createdAt,value
2018-12-05T00:02:03.212Z,97278.01
2018-12-05T00:04:33.611Z,97286.69
2018-12-05T00:07:04.243Z,97293.00
2018-12-05T00:09:34.619Z,97285.89
2018-12-05T00:12:05.181Z,97289.93
2018-12-05T00:14:35.610Z,97288.52
2018-12-05T00:17:06.092Z,97281.30
2018-12-05T00:19:36.654Z,97290.12
2018-12-05T00:22:07.123Z,97294.60
2018-12-05T00:24:37.620Z,97297.92
2018-12-05T00:27:08.168Z,97297.80
2018-12-05T00:29:38.649Z,97286.41
2018-12-05T00:32:11.373Z,97284.66
2018-12-05T00:34:41.870Z,97280.81
2018-12-05T00:37:12.272Z,97284.89
2018-12-05T00:39:42.751Z,97285.77
2018-12-05T00:42:13.208Z,97289.93
2018-12-05T00:44:44.705Z,97287.61
2018-12-05T00:47:15.153Z,97294.36
2018-12-05T00:49:45.652Z,97292.97
2018-12-05T00:52:17.403Z,97293.92
2018-12-05T00:54:47.868Z,97298.95
2018-12-05T00:57:18.330Z,97293.84
2018-12-05T00:59:49.385Z,97291.64
2018-12-05T01:02:19.852Z,97292.33
2018-12-05T01:04:50.301Z,97288.53
2018-12-05T01:07:20.920Z,97293.52
2018-12-05T01:09:51.320Z,97297.96
2018-12-05T01:12:21.919Z,97295.28
2018-12-05T01:14:52.341Z,97293.88
2018-12-05T01:17:24.165Z,97291.11
2018-12-05T01:19:54.633Z,97289.27
2018-12-05T01:22:25.058Z,97287.55
2018-12-05T01:24:55.527Z,97282.43
2018-12-05T01:27:26.035Z,97285.52
2018-12-05T01:29:56.454Z,97212.11
2018-12-05T01:32:27.069Z,97282.95
2018-12-05T01:34:57.512Z,97282.75
2018-12-05T01:37:28.000Z,97279.11
2018-12-05T01:39:58.468Z,97281.95
2018-12-05T01:42:29.162Z,97284.98
2018-12-05T01:44:59.712Z,97284.75
2018-12-05T01:47:30.228Z,97288.58
2018-12-05T01:50:00.738Z,97289.14
2018-12-05T01:52:32.159Z,97283.02
2018-12-05T01:55:02.609Z,97289.23
2018-12-05T01:57:33.113Z,97286.98
2018-12-05T02:00:03.666Z,97283.57
2018-12-05T02:02:34.102Z,97279.92
2018-12-05T02:05:04.854Z,97279.15
2018-12-05T02:07:35.294Z,97277.36
2018-12-05T02:10:06.174Z,97277.38
2018-12-05T02:12:36.580Z,97274.68
2018-12-05T02:15:07.495Z,97282.20
2018-12-05T02:17:37.988Z,97278.89
2018-12-05T02:20:08.688Z,97283.88
2018-12-05T02:22:39.159Z,97282.20
2018-12-05T02:25:09.716Z,97257.41
2018-12-05T02:27:40.262Z,97275.39
2018-12-05T02:30:10.750Z,97282.46
2018-12-05T02:32:43.153Z,97282.97
2018-12-05T02:35:13.612Z,97282.58
2018-12-05T02:37:44.041Z,97279.66
2018-12-05T02:40:14.848Z,97285.27
2018-12-05T02:42:45.291Z,97292.23
2018-12-05T02:45:15.842Z,97296.14
2018-12-05T02:47:46.362Z,97295.73
2018-12-05T02:50:16.907Z,97296.95
2018-12-05T02:52:47.399Z,97292.53
2018-12-05T02:55:17.893Z,97295.92
2018-12-05T02:57:48.377Z,97306.20
2018-12-05T03:00:18.822Z,97304.05
2018-12-05T03:02:49.340Z,97309.45
2018-12-05T03:05:19.775Z,97307.62
2018-12-05T03:07:50.326Z,97315.47
2018-12-05T03:10:20.746Z,97323.57
2018-12-05T03:12:54.981Z,97322.19
2018-12-05T03:15:25.500Z,97327.15
2018-12-05T03:17:56.041Z,97321.78
2018-12-05T03:20:26.519Z,97319.96
2018-12-05T03:22:56.922Z,97323.13
2018-12-05T03:25:28.565Z,97323.97
2018-12-05T03:27:59.060Z,97325.77
2018-12-05T03:30:29.587Z,97325.25
2018-12-05T03:33:00.128Z,97320.40
2018-12-05T03:35:35.438Z,97319.38
2018-12-05T03:38:05.885Z,97320.54
2018-12-05T03:40:36.509Z,97320.65
2018-12-05T03:43:07.075Z,97317.73
2018-12-05T03:45:37.574Z,97321.66
2018-12-05T03:48:08.090Z,97326.48
2018-12-05T03:50:38.456Z,97330.42
2018-12-05T03:53:09.333Z,97330.75
2018-12-05T03:55:39.773Z,97334.00
2018-12-05T03:58:10.259Z,97341.48
2018-12-05T04:00:40.787Z,97343.64
2018-12-05T04:03:11.231Z,97344.66
2018-12-05T04:05:41.705Z,97347.58
2018-12-05T04:08:12.245Z,97351.41
2018-12-05T04:10:42.728Z,97352.50
2018-12-05T04:13:21.081Z,97360.85
2018-12-05T04:15:51.594Z,97359.91
2018-12-05T04:18:22.021Z,97361.00
2018-12-05T04:20:52.604Z,97367.75
2018-12-05T04:23:23.002Z,97374.28
2018-12-05T04:25:53.512Z,97368.00
2018-12-05T04:28:23.981Z,97378.61
2018-12-05T04:30:54.460Z,97375.16
2018-12-05T04:33:26.971Z,97374.31
2018-12-05T04:35:57.429Z,97372.95
2018-12-05T04:38:27.984Z,97371.64
2018-12-05T04:40:58.555Z,97374.44
2018-12-05T04:43:29.037Z,97369.84
2018-12-05T04:45:59.563Z,97382.02
2018-12-05T04:48:30.973Z,97376.59
2018-12-05T04:51:01.479Z,97381.05
2018-12-05T04:53:31.992Z,97377.60
2018-12-05T04:56:02.536Z,97375.25
2018-12-05T04:58:33.063Z,97382.13
2018-12-05T05:01:03.490Z,97385.72
2018-12-05T05:03:33.953Z,97398.21
2018-12-05T05:06:04.457Z,97390.66
2018-12-05T05:08:34.984Z,97396.70
2018-12-05T05:11:05.406Z,97399.59
2018-12-05T05:13:35.895Z,97392.54
2018-12-05T05:16:06.465Z,97407.61
2018-12-05T05:18:36.986Z,97400.66
2018-12-05T05:21:07.503Z,97415.54
2018-12-05T05:23:37.966Z,97417.55
2018-12-05T05:26:08.457Z,97423.20
2018-12-05T05:28:38.944Z,97426.69
2018-12-05T05:31:09.505Z,97431.19
2018-12-05T05:33:40.177Z,97426.33
2018-12-05T05:36:11.818Z,97435.76
2018-12-05T05:38:43.224Z,97444.19
2018-12-05T05:41:13.789Z,97441.17
2018-12-05T05:43:44.281Z,97445.19
2018-12-05T05:52:15.729Z,97455.23
2018-12-05T05:54:46.240Z,97458.62
2018-12-05T05:57:16.831Z,97458.84
2018-12-05T05:59:47.305Z,97458.59
2018-12-05T06:02:17.869Z,97466.46
2018-12-05T06:04:48.390Z,97470.81
2018-12-05T06:07:18.918Z,97475.05
2018-12-05T06:09:49.593Z,97478.25
2018-12-05T06:12:20.067Z,97484.53
2018-12-05T06:14:50.588Z,97486.86
2018-12-05T06:17:21.049Z,97490.69
2018-12-05T06:19:51.435Z,97487.92
2018-12-05T06:22:21.997Z,97495.42
2018-12-05T06:24:52.418Z,97490.12
2018-12-05T06:27:22.893Z,97496.47
2018-12-05T06:29:54.339Z,97498.19
2018-12-05T06:32:24.815Z,97494.98
2018-12-05T06:34:55.228Z,97499.17
2018-12-05T06:37:25.763Z,97508.29
2018-12-05T06:39:56.183Z,97507.91
2018-12-05T06:42:26.722Z,97510.84
2018-12-05T06:44:57.188Z,97516.50
2018-12-05T06:47:27.989Z,97517.53
2018-12-05T06:49:58.949Z,97513.17
2018-12-05T06:52:29.443Z,97516.56
2018-12-05T06:54:59.920Z,97517.91
2018-12-05T06:57:30.406Z,97513.67
2018-12-05T07:00:02.265Z,97515.84
2018-12-05T07:02:32.675Z,97507.84
2018-12-05T07:05:03.207Z,97510.45
2018-12-05T07:07:33.670Z,97506.52
2018-12-05T07:10:05.373Z,97513.89
2018-12-05T07:12:35.918Z,97513.51
2018-12-05T07:15:06.682Z,97519.33
2018-12-05T07:17:37.180Z,97518.89
2018-12-05T07:20:09.669Z,97515.69
2018-12-05T07:22:40.149Z,97530.34
2018-12-05T07:25:10.704Z,97528.44
2018-12-05T07:27:41.154Z,97529.28
2018-12-05T07:30:12.983Z,97530.83
2018-12-05T07:32:43.589Z,97536.22
2018-12-05T07:35:14.081Z,97539.73
2018-12-05T07:37:44.556Z,97536.22
2018-12-05T07:40:15.109Z,97548.70
2018-12-05T07:42:45.718Z,97540.97
2018-12-05T07:45:16.221Z,97545.20
2018-12-05T07:47:46.761Z,97544.02
2018-12-05T07:50:17.569Z,97552.02
2018-12-05T07:52:48.102Z,97546.58
2018-12-05T07:55:18.541Z,97554.30
2018-12-05T07:57:48.980Z,97552.95
2018-12-05T08:00:19.467Z,97556.52
2018-12-05T08:02:50.001Z,97555.02
2018-12-05T08:05:20.552Z,97557.39
2018-12-05T08:07:51.074Z,97554.00
2018-12-05T08:10:21.667Z,97558.22
2018-12-05T08:12:52.097Z,97559.19
2018-12-05T08:15:22.699Z,97561.80
2018-12-05T08:17:53.214Z,97560.16
2018-12-05T08:20:23.834Z,97557.41
2018-12-05T08:22:54.405Z,97564.80
2018-12-05T08:25:24.919Z,97561.52
2018-12-05T08:27:55.570Z,97561.39
2018-12-05T08:30:26.204Z,97562.58
2018-12-05T08:32:56.747Z,97558.18
2018-12-05T08:35:27.237Z,97555.84
2018-12-05T08:37:57.724Z,97554.86
2018-12-05T08:40:28.362Z,97557.07
2018-12-05T08:42:58.884Z,97557.56
2018-12-05T08:45:29.477Z,97552.86
2018-12-05T08:48:00.009Z,97548.88
2018-12-05T08:50:31.364Z,97546.87
2018-12-05T08:53:01.833Z,97538.64
2018-12-05T08:55:38.879Z,97531.05
2018-12-05T08:58:09.300Z,97535.27
2018-12-05T09:00:39.799Z,97530.92
2018-12-05T09:03:10.285Z,97526.45
2018-12-05T09:05:40.856Z,97524.42
2018-12-05T09:08:12.483Z,97525.16
2018-12-05T09:10:43.015Z,97527.05
2018-12-05T09:13:14.703Z,97527.58
2018-12-05T09:15:45.306Z,97523.92
2018-12-05T09:18:15.974Z,97530.49
2018-12-05T09:20:46.518Z,97530.64
2018-12-05T09:23:17.037Z,97538.31
2018-12-05T09:25:47.624Z,97529.95
2018-12-05T09:28:18.190Z,97529.86
2018-12-05T09:30:49.024Z,97523.27
2018-12-05T09:33:19.539Z,97519.39
2018-12-05T09:35:50.045Z,97515.30
2018-12-05T09:38:20.511Z,97523.73
2018-12-05T09:40:51.317Z,97522.61
2018-12-05T09:43:21.937Z,97523.75
2018-12-05T09:45:52.470Z,97519.48
2018-12-05T09:48:22.939Z,97520.00
2018-12-05T09:50:53.537Z,97521.21
2018-12-05T09:53:24.084Z,97513.52
2018-12-05T09:55:54.628Z,97518.73
2018-12-05T09:58:25.149Z,97527.46
2018-12-05T10:00:55.850Z,97526.56
2018-12-05T10:03:26.338Z,97529.27
2018-12-05T10:05:56.931Z,97527.31
2018-12-05T10:08:27.610Z,97524.98
2018-12-05T10:11:01.435Z,97518.64
2018-12-05T10:13:33.099Z,97521.72
2018-12-05T10:16:03.568Z,97523.59
2018-12-05T10:18:34.088Z,97525.78
2018-12-05T10:21:04.605Z,97533.08
2018-12-05T10:23:35.233Z,97535.34
2018-12-05T10:26:05.797Z,97526.33
2018-12-05T10:28:36.312Z,97524.73
2018-12-05T10:31:06.850Z,97538.86
2018-12-05T10:33:37.666Z,97528.08
2018-12-05T10:36:08.212Z,97524.84
2018-12-05T10:38:38.760Z,97521.37
2018-12-05T10:41:09.272Z,97514.19
2018-12-05T10:43:39.823Z,97520.67
2018-12-05T10:46:10.293Z,97510.58
2018-12-05T10:48:40.960Z,97511.50
2018-12-05T10:51:11.686Z,97518.87
2018-12-05T10:53:42.174Z,97528.16
2018-12-05T10:56:12.742Z,97531.31
2018-12-05T10:58:43.274Z,97521.67
2018-12-05T11:01:18.714Z,97519.76
2018-12-05T11:03:49.218Z,97515.11
2018-12-05T11:06:24.769Z,97509.95
2018-12-05T11:09:00.211Z,97511.03
2018-12-05T11:11:37.818Z,97511.63
2018-12-05T11:14:13.143Z,97513.81
2018-12-05T11:16:50.322Z,97510.20
2018-12-05T11:19:25.829Z,97502.94
2018-12-05T11:22:01.314Z,97516.43
2018-12-05T11:24:34.687Z,97515.34
2018-12-05T11:27:05.184Z,97516.84
2018-12-05T11:29:35.696Z,97502.02
2018-12-05T11:32:06.132Z,97510.19
2018-12-05T11:34:36.766Z,97507.48
2018-12-05T11:37:07.841Z,97517.70
2018-12-05T11:39:38.379Z,97519.73
2018-12-05T11:42:08.928Z,97529.70
2018-12-05T11:44:39.440Z,97531.25
2018-12-05T11:47:09.903Z,97530.63
2018-12-05T11:49:40.399Z,97531.42
2018-12-05T11:52:11.010Z,97528.95
2018-12-05T11:54:41.540Z,97530.39
2018-12-05T11:57:12.056Z,97525.22
2018-12-05T11:59:42.670Z,97527.50
2018-12-05T12:02:13.253Z,97526.89
2018-12-05T12:04:43.870Z,97529.55
2018-12-05T12:07:14.343Z,97530.20
2018-12-05T12:09:44.963Z,97542.34
2018-12-05T12:12:20.515Z,97543.23
2018-12-05T12:14:51.082Z,97527.27
2018-12-05T12:17:21.643Z,97532.09
2018-12-05T12:19:52.069Z,97526.23
2018-12-05T12:22:22.629Z,97525.27
2018-12-05T12:24:53.174Z,97534.16
2018-12-05T12:27:24.162Z,97531.04
2018-12-05T12:29:54.675Z,97534.87
2018-12-05T12:32:25.388Z,97534.87
2018-12-05T12:34:55.935Z,97528.84
2018-12-05T12:37:26.466Z,97522.78
2018-12-05T12:39:57.009Z,97538.41
2018-12-05T12:42:27.590Z,97538.06
2018-12-05T12:44:58.098Z,97545.69
2018-12-05T12:47:28.630Z,97549.91
2018-12-05T12:49:59.228Z,97552.05
2018-12-05T12:52:29.867Z,97552.91
2018-12-05T12:55:00.388Z,97563.46
2018-12-05T12:57:31.350Z,97567.55
2018-12-05T13:00:01.930Z,97564.88
2018-12-05T13:02:32.485Z,97565.00
2018-12-05T13:05:02.969Z,97565.00
2018-12-05T13:07:33.549Z,97560.69
2018-12-05T13:10:04.096Z,97574.93
2018-12-05T13:12:34.988Z,97563.38
2018-12-05T13:15:05.872Z,97570.97
2018-12-05T13:17:36.364Z,97566.70
2018-12-05T13:20:07.471Z,97571.80
2018-12-05T13:22:38.092Z,97567.98
2018-12-05T13:25:08.626Z,97588.52
2018-12-05T13:27:39.206Z,97540.93
2018-12-05T13:30:09.754Z,97579.31
2018-12-05T13:32:40.531Z,97575.57
2018-12-05T13:35:11.077Z,97579.19
2018-12-05T13:37:41.654Z,97580.95
2018-12-05T13:40:12.394Z,97587.73
2018-12-05T13:42:42.952Z,97585.08
2018-12-05T13:45:13.473Z,97593.83
2018-12-05T13:47:44.021Z,97596.40
2018-12-05T13:50:14.646Z,97599.98
2018-12-05T13:52:45.420Z,97601.32
2018-12-05T13:55:16.051Z,97615.83
2018-12-05T13:57:46.547Z,97616.64
2018-12-05T14:00:17.125Z,97612.81
2018-12-05T14:02:47.699Z,97622.23
2018-12-05T14:05:18.143Z,97618.95
2018-12-05T14:07:48.691Z,97623.27
2018-12-05T14:10:19.177Z,97625.73
2018-12-05T14:12:50.082Z,97622.91
2018-12-05T14:15:20.488Z,97626.22
2018-12-05T14:17:50.932Z,97632.05
2018-12-05T14:20:21.496Z,97638.41
2018-12-05T14:22:52.034Z,97635.95
2018-12-05T14:25:22.646Z,97641.94
2018-12-05T14:27:53.157Z,97626.44
2018-12-05T14:30:23.668Z,97636.58
2018-12-05T14:32:54.297Z,97639.91
2018-12-05T14:35:24.755Z,97645.77
2018-12-05T14:37:55.355Z,97650.45
2018-12-05T14:40:25.869Z,97653.30
2018-12-05T14:42:56.480Z,97653.70
2018-12-05T14:45:27.031Z,97655.61
2018-12-05T14:47:57.435Z,97658.21
2018-12-05T14:50:28.025Z,97656.94
2018-12-05T14:52:59.178Z,97661.98
2018-12-05T14:55:29.634Z,97654.58
2018-12-05T14:58:00.104Z,97656.25
2018-12-05T15:00:30.630Z,97661.67
2018-12-05T15:03:01.222Z,97654.82
2018-12-05T15:05:31.582Z,97658.59
2018-12-05T15:08:02.185Z,97662.27
2018-12-05T15:10:33.602Z,97657.26
2018-12-05T15:13:04.388Z,97659.43
2018-12-05T15:15:34.801Z,97659.81
2018-12-05T15:18:05.380Z,97664.88
2018-12-05T15:20:36.014Z,97668.05
2018-12-05T15:23:06.596Z,97669.21
2018-12-05T15:25:37.139Z,97666.72
2018-12-05T15:28:07.670Z,97672.53
2018-12-05T15:30:38.401Z,97670.00
2018-12-05T15:33:09.102Z,97672.22
2018-12-05T15:35:39.644Z,97669.32
2018-12-05T15:38:10.304Z,97685.53
2018-12-05T15:40:40.780Z,97668.72
2018-12-05T15:43:11.248Z,97675.04
2018-12-05T15:45:41.809Z,97678.43
2018-12-05T15:48:12.350Z,97677.48
2018-12-05T15:50:42.803Z,97667.34
2018-12-05T15:53:13.336Z,97666.13
2018-12-05T15:55:43.870Z,97672.06
2018-12-05T15:58:14.340Z,97679.59
2018-12-05T16:00:44.893Z,97679.65
2018-12-05T16:03:15.387Z,97680.38
2018-12-05T16:05:45.958Z,97679.30
2018-12-05T16:08:16.564Z,97679.23
2018-12-05T16:10:47.081Z,97695.72
2018-12-05T16:13:17.892Z,97694.04
2018-12-05T16:15:48.452Z,97700.95
2018-12-05T16:18:18.924Z,97702.63
2018-12-05T16:20:49.529Z,97703.20
2018-12-05T16:23:20.064Z,97700.52
2018-12-05T16:25:50.521Z,97707.67
2018-12-05T16:28:21.021Z,97717.39
2018-12-05T16:30:51.527Z,97705.13
2018-12-05T16:33:22.091Z,97707.07
2018-12-05T16:35:52.672Z,97717.27
2018-12-05T16:38:23.224Z,97713.08
2018-12-05T16:40:53.767Z,97721.16
2018-12-05T16:43:24.336Z,97713.33
2018-12-05T16:45:54.893Z,97726.91
2018-12-05T16:48:25.427Z,97728.74
2018-12-05T16:50:55.987Z,97725.89
2018-12-05T16:53:26.481Z,97738.98
2018-12-05T16:55:57.047Z,97725.94
2018-12-05T16:58:27.546Z,97729.47
2018-12-05T17:00:58.081Z,97736.61
2018-12-05T17:03:28.717Z,97731.23
2018-12-05T17:05:59.254Z,97741.08
2018-12-05T17:08:29.813Z,97727.51
2018-12-05T17:11:00.395Z,97726.88
2018-12-05T17:13:34.763Z,97733.56
2018-12-05T17:16:05.304Z,97725.20
2018-12-05T17:18:35.880Z,97733.25
2018-12-05T17:21:06.645Z,97731.62
2018-12-05T17:23:37.195Z,97741.84
2018-12-05T17:26:07.742Z,97734.66
2018-12-05T17:28:38.271Z,97738.16
2018-12-05T17:31:08.775Z,97746.64
2018-12-05T17:33:39.338Z,97747.87
2018-12-05T17:36:09.900Z,97742.83
2018-12-05T17:38:40.361Z,97742.03
2018-12-05T17:41:10.911Z,97761.55
2018-12-05T17:43:42.517Z,97754.50
2018-12-05T17:46:13.219Z,97761.60
2018-12-05T17:48:43.730Z,97760.38
2018-12-05T17:51:14.242Z,97771.36
2018-12-05T17:53:45.934Z,97772.22
2018-12-05T17:56:16.469Z,97775.67
2018-12-05T17:58:46.997Z,97780.42
2018-12-05T18:01:17.592Z,97773.59
2018-12-05T18:03:48.078Z,97778.01
2018-12-05T18:06:18.632Z,97774.28
2018-12-05T18:08:49.116Z,97782.34
2018-12-05T18:11:19.648Z,97784.53
2018-12-05T18:13:50.328Z,97787.59
2018-12-05T18:16:20.906Z,97786.64
2018-12-05T18:18:51.425Z,97787.81
2018-12-05T18:21:21.917Z,97795.88
2018-12-05T18:23:52.364Z,97796.77
2018-12-05T18:26:22.904Z,97793.91
2018-12-05T18:28:53.536Z,97807.00
2018-12-05T18:31:24.038Z,97812.09
2018-12-05T18:33:54.789Z,97813.42
2018-12-05T18:36:25.330Z,97812.14
2018-12-05T18:38:55.941Z,97827.41
2018-12-05T18:41:26.440Z,97828.16
2018-12-05T18:43:57.400Z,97819.63
2018-12-05T18:46:27.940Z,97829.00
2018-12-05T18:48:58.481Z,97829.00
2018-12-05T18:51:29.096Z,97831.50
2018-12-05T18:53:59.620Z,97826.94
2018-12-05T18:56:30.118Z,97838.88
2018-12-05T18:59:00.557Z,97831.22
2018-12-05T19:01:31.033Z,97834.57
2018-12-05T19:04:01.482Z,97846.41
2018-12-05T19:06:32.099Z,97843.80
2018-12-05T19:09:02.733Z,97833.30
2018-12-05T19:11:34.730Z,97847.67
2018-12-05T19:14:10.376Z,97831.55
2018-12-05T19:16:40.997Z,97833.20
2018-12-05T19:19:11.565Z,97839.66
2018-12-05T19:21:42.107Z,97825.25
2018-12-05T19:24:12.636Z,97833.36
2018-12-05T19:26:43.418Z,97855.78
2018-12-05T19:29:13.888Z,97854.93
2018-12-05T19:31:44.472Z,97861.20
2018-12-05T19:34:16.003Z,97864.22
2018-12-05T19:36:46.728Z,97858.33
2018-12-05T19:39:17.241Z,97863.51
2018-12-05T19:41:47.806Z,97871.05
2018-12-05T19:44:18.308Z,97859.75
2018-12-05T19:46:48.803Z,97863.89
2018-12-05T19:49:19.443Z,97867.75
2018-12-05T19:51:49.924Z,97877.89
2018-12-05T19:54:20.766Z,97883.41
2018-12-05T19:56:51.431Z,97880.52
2018-12-05T19:59:21.968Z,97876.62
2018-12-05T20:01:52.540Z,97884.68
2018-12-05T20:04:23.047Z,97886.42
2018-12-05T20:06:53.528Z,97881.91
2018-12-05T20:09:24.044Z,97888.16
2018-12-05T20:11:54.562Z,97883.07
2018-12-05T20:14:30.213Z,97891.03
2018-12-05T20:17:00.764Z,97886.89
2018-12-05T20:19:31.322Z,97889.02
2018-12-05T20:22:01.809Z,97895.32
2018-12-05T20:24:32.313Z,97907.16
2018-12-05T20:27:02.832Z,97905.88
2018-12-05T20:29:33.259Z,97903.63
2018-12-05T20:32:04.397Z,97906.02
2018-12-05T20:34:36.729Z,97916.62
2018-12-05T20:37:07.224Z,97924.73
2018-12-05T20:39:37.657Z,97927.14
2018-12-05T20:42:08.105Z,97932.27
2018-12-05T20:44:38.507Z,97930.95
2018-12-05T20:47:09.067Z,97930.06
2018-12-05T20:49:39.422Z,97934.06
2018-12-05T20:52:09.849Z,97943.63
2018-12-05T20:54:41.501Z,97952.30
2018-12-05T20:57:11.920Z,97942.64
2018-12-05T20:59:43.130Z,97953.53
2018-12-05T21:02:13.755Z,97965.58
2018-12-05T21:04:44.347Z,97963.80
2018-12-05T21:07:14.812Z,97960.92
2018-12-05T21:09:45.212Z,97974.91
2018-12-05T21:12:15.684Z,97972.83
2018-12-05T21:14:46.318Z,97984.70
2018-12-05T21:17:16.737Z,97984.28
2018-12-05T21:19:47.241Z,97990.39
2018-12-05T21:22:17.693Z,97987.14
2018-12-05T21:24:48.168Z,97993.88
2018-12-05T21:27:18.691Z,97989.17
2018-12-05T21:29:49.193Z,97996.80
2018-12-05T21:32:19.745Z,97994.34
2018-12-05T21:34:50.286Z,97987.56
2018-12-05T21:37:20.702Z,98000.20
2018-12-05T21:39:51.215Z,97994.85
2018-12-05T21:42:22.037Z,97988.08
2018-12-05T21:44:52.559Z,97986.34
2018-12-05T21:47:22.998Z,97978.75
2018-12-05T21:49:53.447Z,97979.17
2018-12-05T21:52:24.029Z,97989.73
2018-12-05T21:54:56.634Z,97975.40
2018-12-05T21:57:27.321Z,97993.16
2018-12-05T21:59:57.825Z,97991.04
2018-12-05T22:02:29.297Z,97987.19
2018-12-05T22:04:59.729Z,97990.23
2018-12-05T22:07:30.177Z,97986.42
2018-12-05T22:10:00.627Z,97991.89
2018-12-05T22:12:31.041Z,97984.34
2018-12-05T22:15:05.251Z,97987.69
2018-12-05T22:17:35.911Z,97981.84
2018-12-05T22:20:07.421Z,97982.36
2018-12-05T22:22:37.888Z,97978.12
2018-12-05T22:25:08.409Z,97976.50
2018-12-05T22:27:38.942Z,97983.37
2018-12-05T22:30:10.072Z,97971.84
2018-12-05T22:32:40.543Z,97968.07
2018-12-05T22:35:10.537Z,97973.50
2018-12-05T22:37:40.987Z,97976.93
2018-12-05T22:40:11.500Z,97960.61
2018-12-05T22:42:41.991Z,97968.50
2018-12-05T22:45:13.158Z,97974.17
2018-12-05T22:47:43.619Z,97975.78
2018-12-05T22:50:13.996Z,97976.25
2018-12-05T22:52:44.501Z,97981.92
2018-12-05T22:55:15.140Z,97967.98
2018-12-05T22:57:45.636Z,97973.41
2018-12-05T23:00:23.413Z,97974.63
2018-12-05T23:02:55.956Z,97970.41
2018-12-05T23:05:26.446Z,97970.91
2018-12-05T23:07:56.956Z,97972.72
2018-12-05T23:10:27.396Z,97968.06
2018-12-05T23:12:57.874Z,97983.31
2018-12-05T23:15:28.824Z,97978.69
2018-12-05T23:17:59.349Z,97977.42
2018-12-05T23:20:29.858Z,97981.23
2018-12-05T23:23:00.283Z,97993.95
2018-12-05T23:25:30.807Z,98000.67
2018-12-05T23:28:01.277Z,98011.16
2018-12-05T23:34:02.809Z,98013.00
2018-12-05T23:36:33.303Z,98016.86
2018-12-05T23:39:04.860Z,98014.23
2018-12-05T23:41:35.359Z,98010.34
2018-12-05T23:44:05.815Z,98023.91
2018-12-05T23:46:36.349Z,98021.83
2018-12-05T23:49:06.761Z,98026.45
2018-12-05T23:51:37.196Z,98031.72
2018-12-05T23:54:07.640Z,98033.80
2018-12-05T23:56:38.074Z,98019.78
2018-12-05T23:59:08.534Z,98023.21
